createdAt,value
2022-08-26T00:00:19.912Z,6.60
2022-08-26T00:03:03.522Z,6.20
2022-08-26T00:05:31.927Z,6.50
2022-08-26T00:08:00.420Z,6.20
2022-08-26T00:10:29.068Z,7.60
2022-08-26T00:12:57.289Z,6.90
2022-08-26T00:15:26.135Z,7.20
2022-08-26T00:17:56.450Z,7.40
2022-08-26T00:20:29.623Z,6.50
2022-08-26T00:22:59.147Z,6.60
2022-08-26T00:25:28.015Z,6.20
2022-08-26T00:27:56.658Z,6.50
2022-08-26T00:30:28.305Z,6.50
2022-08-26T00:32:57.273Z,6.50
2022-08-26T00:35:26.591Z,6.00
2022-08-26T00:40:34.725Z,6.30
2022-08-26T00:43:09.502Z,6.20
2022-08-26T00:45:42.915Z,6.20
2022-08-26T00:48:12.260Z,6.40
2022-08-26T00:50:49.416Z,6.00
2022-08-26T00:53:26.025Z,5.50
2022-08-26T00:56:08.290Z,5.70
2022-08-26T00:58:39.068Z,5.80
2022-08-26T01:05:58.323Z,6.20
2022-08-26T01:08:27.902Z,6.60
2022-08-26T01:10:58.492Z,6.20
2022-08-26T01:13:29.711Z,7.40
2022-08-26T01:16:02.848Z,6.60
2022-08-26T01:18:31.732Z,7.00
2022-08-26T01:21:11.470Z,7.20
2022-08-26T01:23:45.083Z,5.60
2022-08-26T01:26:19.973Z,6.80
2022-08-26T01:28:51.831Z,6.20
2022-08-26T01:31:25.053Z,6.00
2022-08-26T01:34:00.547Z,5.90
2022-08-26T01:36:29.465Z,6.70
2022-08-26T01:38:57.885Z,6.00
2022-08-26T01:41:27.304Z,6.00
2022-08-26T01:43:57.766Z,6.40
2022-08-26T01:46:29.815Z,6.60
2022-08-26T01:49:02.550Z,5.90
2022-08-26T01:51:34.280Z,6.30
2022-08-26T01:54:12.007Z,6.60
2022-08-26T01:56:42.364Z,5.70
2022-08-26T01:59:13.341Z,6.20
2022-08-26T02:01:41.979Z,6.20
2022-08-26T02:04:23.822Z,5.70
2022-08-26T02:06:53.630Z,6.00
2022-08-26T02:09:23.674Z,5.70
2022-08-26T02:11:53.645Z,6.20
2022-08-26T02:14:27.071Z,6.00
2022-08-26T02:16:56.823Z,8.80
2022-08-26T02:19:32.734Z,9.20
2022-08-26T02:22:06.401Z,7.80
2022-08-26T02:24:52.875Z,8.00
2022-08-26T02:27:32.461Z,7.00
2022-08-26T02:30:14.881Z,7.00
2022-08-26T02:32:46.491Z,6.60
2022-08-26T02:35:20.569Z,7.40
2022-08-26T02:37:50.420Z,7.70
2022-08-26T02:40:22.665Z,7.40
2022-08-26T02:42:52.994Z,7.40
2022-08-26T02:45:26.411Z,5.90
2022-08-26T02:47:58.380Z,7.00
2022-08-26T02:50:28.887Z,7.30
2022-08-26T02:52:56.997Z,7.40
2022-08-26T02:55:26.043Z,6.60
2022-08-26T02:57:54.310Z,6.40
2022-08-26T03:00:23.820Z,6.40
2022-08-26T03:02:52.201Z,6.30
2022-08-26T03:05:22.217Z,6.80
2022-08-26T03:07:52.929Z,5.90
2022-08-26T03:10:22.606Z,5.80
2022-08-26T03:12:50.919Z,6.40
2022-08-26T03:15:20.607Z,6.30
2022-08-26T03:17:50.415Z,6.30
2022-08-26T03:20:18.757Z,5.60
2022-08-26T03:22:47.255Z,5.70
2022-08-26T03:25:18.255Z,6.70
2022-08-26T03:27:46.760Z,5.90
2022-08-26T03:30:34.867Z,6.30
2022-08-26T03:33:04.142Z,6.40
2022-08-26T03:35:33.620Z,6.50
2022-08-26T03:38:03.592Z,6.40
2022-08-26T03:40:33.909Z,7.10
2022-08-26T03:43:04.729Z,6.30
2022-08-26T03:45:33.600Z,6.60
2022-08-26T03:48:01.915Z,7.70
2022-08-26T03:50:34.107Z,8.20
2022-08-26T03:53:03.439Z,9.30
2022-08-26T03:55:33.603Z,9.70
2022-08-26T03:58:02.186Z,8.50
2022-08-26T04:00:31.228Z,7.70
2022-08-26T04:02:59.467Z,7.50
2022-08-26T04:05:27.818Z,7.40
2022-08-26T04:07:56.578Z,7.30
2022-08-26T04:10:26.408Z,7.20
2022-08-26T04:13:00.337Z,7.40
2022-08-26T04:15:28.873Z,6.90
2022-08-26T04:17:57.314Z,7.10
2022-08-26T04:20:26.872Z,6.70
2022-08-26T04:22:55.277Z,6.80
2022-08-26T04:25:24.183Z,6.70
2022-08-26T04:27:52.705Z,7.00
2022-08-26T04:30:21.429Z,7.60
2022-08-26T04:32:50.217Z,7.00
2022-08-26T04:35:22.794Z,7.20
2022-08-26T04:37:54.538Z,6.30
2022-08-26T04:40:24.260Z,7.10
2022-08-26T04:42:54.773Z,6.30
2022-08-26T04:45:24.238Z,6.40
2022-08-26T04:47:55.070Z,6.70
2022-08-26T04:50:25.705Z,6.50
2022-08-26T04:52:55.801Z,6.40
2022-08-26T04:55:38.554Z,6.00
2022-08-26T04:58:11.293Z,8.70
2022-08-26T05:00:39.485Z,6.80
2022-08-26T05:03:10.201Z,7.40
2022-08-26T05:05:42.709Z,7.40
2022-08-26T05:08:13.278Z,8.30
2022-08-26T05:10:47.744Z,7.50
2022-08-26T05:13:19.088Z,7.50
2022-08-26T05:15:49.471Z,7.10
2022-08-26T05:18:21.396Z,7.10
2022-08-26T05:20:54.828Z,7.60
2022-08-26T05:23:24.996Z,7.50
2022-08-26T05:25:59.169Z,6.80
2022-08-26T05:28:30.001Z,7.00
2022-08-26T05:30:58.482Z,7.00
2022-08-26T05:33:26.714Z,7.30
2022-08-26T05:35:55.014Z,6.10
2022-08-26T05:38:23.721Z,6.10
2022-08-26T05:40:53.278Z,7.10
2022-08-26T05:43:21.496Z,6.10
2022-08-26T05:45:50.912Z,6.40
2022-08-26T05:48:22.667Z,6.60
2022-08-26T05:50:53.662Z,6.70
2022-08-26T05:53:23.874Z,6.70
2022-08-26T05:55:56.177Z,6.80
2022-08-26T05:58:24.468Z,5.80
2022-08-26T06:00:58.151Z,6.20
2022-08-26T06:03:26.435Z,6.30
2022-08-26T06:05:55.751Z,5.80
2022-08-26T06:08:24.192Z,6.30
2022-08-26T06:10:55.371Z,6.30
2022-08-26T06:13:27.289Z,6.50
2022-08-26T06:16:03.254Z,6.10
2022-08-26T06:18:36.606Z,6.20
2022-08-26T06:21:17.545Z,6.90
2022-08-26T06:24:06.198Z,5.90
2022-08-26T06:26:36.681Z,6.50
2022-08-26T06:29:06.763Z,7.00
2022-08-26T06:31:37.202Z,5.60
2022-08-26T06:34:10.683Z,6.50
2022-08-26T06:36:42.255Z,6.10
2022-08-26T06:39:14.477Z,5.80
2022-08-26T06:41:45.084Z,5.50
2022-08-26T06:44:18.945Z,6.70
2022-08-26T06:46:50.302Z,6.30
2022-08-26T06:49:25.815Z,5.60
2022-08-26T06:51:59.879Z,6.10
2022-08-26T06:54:30.288Z,6.10
2022-08-26T06:56:59.126Z,5.50
2022-08-26T06:59:27.426Z,5.50
2022-08-26T07:01:56.118Z,5.30
2022-08-26T07:04:25.086Z,5.30
2022-08-26T07:06:56.955Z,5.70
2022-08-26T07:09:29.296Z,5.30
2022-08-26T07:11:58.344Z,5.40
2022-08-26T07:14:26.671Z,5.10
2022-08-26T07:16:54.923Z,5.40
2022-08-26T07:19:30.033Z,5.80
2022-08-26T07:22:03.812Z,6.30
2022-08-26T07:24:35.475Z,5.40
2022-08-26T07:27:06.020Z,5.60
2022-08-26T07:29:35.663Z,4.40
2022-08-26T07:32:04.665Z,6.20
2022-08-26T07:34:33.380Z,4.90
2022-08-26T07:37:02.739Z,5.20
2022-08-26T07:39:32.050Z,5.70
2022-08-26T07:42:03.810Z,5.20
2022-08-26T07:44:38.246Z,4.90
2022-08-26T07:47:10.069Z,5.10
2022-08-26T07:49:54.994Z,5.00
2022-08-26T07:52:26.897Z,4.90
2022-08-26T07:55:00.716Z,4.50
2022-08-26T07:57:30.478Z,4.50
2022-08-26T07:59:59.277Z,5.30
2022-08-26T08:02:29.707Z,5.10
2022-08-26T08:07:44.249Z,5.60
2022-08-26T08:10:17.548Z,4.90
2022-08-26T08:12:47.622Z,5.00
2022-08-26T08:15:18.447Z,4.80
2022-08-26T08:17:50.421Z,4.50
2022-08-26T08:20:21.421Z,5.20
2022-08-26T08:22:52.737Z,9.00
2022-08-26T08:25:23.328Z,6.20
2022-08-26T08:27:51.588Z,11.50
2022-08-26T08:30:22.785Z,5.50
2022-08-26T08:32:52.296Z,6.90
2022-08-26T08:35:22.614Z,5.40
2022-08-26T08:37:54.593Z,4.60
2022-08-26T08:40:26.376Z,4.60
2022-08-26T08:43:10.012Z,4.80
2022-08-26T08:45:47.480Z,5.40
2022-08-26T08:48:28.135Z,4.90
2022-08-26T08:51:06.418Z,4.60
2022-08-26T08:53:39.434Z,4.70
2022-08-26T08:56:42.860Z,5.30
2022-08-26T08:59:17.089Z,4.90
2022-08-26T09:01:52.347Z,4.60
2022-08-26T09:04:51.974Z,4.10
2022-08-26T09:07:37.369Z,4.10
2022-08-26T09:10:06.273Z,3.90
2022-08-26T09:12:35.174Z,4.30
2022-08-26T09:15:25.477Z,3.90
2022-08-26T09:18:29.279Z,4.00
2022-08-26T09:21:04.495Z,4.10
2022-08-26T09:23:35.975Z,4.60
2022-08-26T09:26:18.737Z,4.70
2022-08-26T09:28:55.255Z,4.90
2022-08-26T09:31:36.384Z,4.40
2022-08-26T09:34:25.951Z,6.40
2022-08-26T09:36:59.712Z,9.50
2022-08-26T09:39:38.165Z,5.40
2022-08-26T09:42:17.263Z,6.40
2022-08-26T09:45:03.686Z,4.90
2022-08-26T09:48:00.761Z,4.40
2022-08-26T09:50:34.071Z,4.50
2022-08-26T09:53:09.705Z,4.20
2022-08-26T09:55:43.892Z,3.70
2022-08-26T09:58:38.073Z,4.30
2022-08-26T10:01:09.009Z,5.00
2022-08-26T10:03:39.816Z,4.10
2022-08-26T10:06:23.756Z,4.00
2022-08-26T10:08:57.664Z,4.10
2022-08-26T10:11:35.523Z,3.80
2022-08-26T10:14:17.516Z,3.90
2022-08-26T10:17:11.456Z,4.70
2022-08-26T10:19:57.139Z,4.10
2022-08-26T10:22:45.699Z,3.70
2022-08-26T10:25:20.115Z,4.10
2022-08-26T10:28:03.793Z,3.50
2022-08-26T10:30:45.658Z,4.20
2022-08-26T10:33:18.574Z,11.60
2022-08-26T10:35:59.784Z,3.80
2022-08-26T10:38:34.953Z,4.00
2022-08-26T10:41:18.758Z,3.60
2022-08-26T10:43:59.632Z,3.70
2022-08-26T10:46:36.960Z,4.20
2022-08-26T10:49:17.430Z,3.10
2022-08-26T10:52:12.300Z,3.40
2022-08-26T10:55:08.572Z,3.50
2022-08-26T10:58:04.753Z,3.40
2022-08-26T11:00:59.217Z,4.40
2022-08-26T11:03:54.317Z,3.60
2022-08-26T11:06:29.050Z,3.10
2022-08-26T11:08:59.692Z,3.00
2022-08-26T11:11:39.805Z,3.50
2022-08-26T11:14:23.456Z,3.80
2022-08-26T11:16:59.010Z,3.20
2022-08-26T11:22:32.695Z,3.30
2022-08-26T11:25:05.542Z,2.90
2022-08-26T11:27:36.477Z,3.00
2022-08-26T11:30:07.973Z,2.70
2022-08-26T11:32:39.308Z,2.90
2022-08-26T11:35:20.215Z,3.30
2022-08-26T11:37:48.812Z,2.80
2022-08-26T11:40:43.670Z,2.90
2022-08-26T11:43:18.673Z,2.90
2022-08-26T11:46:00.374Z,3.30
2022-08-26T11:48:33.338Z,3.70
2022-08-26T11:51:07.290Z,3.10
2022-08-26T11:53:40.940Z,3.60
2022-08-26T11:56:12.520Z,3.40
2022-08-26T11:58:45.553Z,3.20
2022-08-26T12:01:25.827Z,3.90
2022-08-26T12:06:38.913Z,3.10
2022-08-26T12:09:34.618Z,2.90
2022-08-26T12:12:22.087Z,3.20
2022-08-26T12:15:10.180Z,2.90
2022-08-26T12:17:40.735Z,2.60
2022-08-26T12:20:46.058Z,3.20
2022-08-26T12:23:30.627Z,2.80
2022-08-26T12:26:29.706Z,3.20
2022-08-26T12:29:09.968Z,3.00
2022-08-26T12:31:48.893Z,2.50
2022-08-26T13:52:04.434Z,2.70
2022-08-26T13:54:33.537Z,2.60
2022-08-26T13:57:01.988Z,2.90
2022-08-26T13:59:30.299Z,3.20
2022-08-26T14:01:58.948Z,2.90
2022-08-26T14:04:27.603Z,2.50
2022-08-26T14:06:56.492Z,2.80
2022-08-26T14:09:24.950Z,2.90
2022-08-26T14:11:54.862Z,2.10
2022-08-26T14:14:23.922Z,2.80
2022-08-26T14:16:59.527Z,2.70
2022-08-26T14:19:30.759Z,2.60
2022-08-26T14:22:01.127Z,2.70
2022-08-26T14:24:29.971Z,2.90
2022-08-26T14:26:58.865Z,2.60
2022-08-26T14:29:27.171Z,3.30
2022-08-26T14:31:57.202Z,3.00
2022-08-26T14:34:26.932Z,3.50
2022-08-26T14:36:55.126Z,3.60
2022-08-26T14:39:24.162Z,3.70
2022-08-26T14:41:56.273Z,3.40
2022-08-26T14:44:29.945Z,4.10
2022-08-26T14:47:01.419Z,4.10
2022-08-26T14:49:31.665Z,3.10
2022-08-26T14:51:59.932Z,3.00
2022-08-26T14:54:29.563Z,3.50
2022-08-26T14:57:04.256Z,3.60
2022-08-26T14:59:38.229Z,4.10
2022-08-26T15:02:09.182Z,3.70
2022-08-26T15:04:42.055Z,3.90
2022-08-26T15:07:12.884Z,4.10
2022-08-26T15:09:41.176Z,3.90
2022-08-26T15:12:09.446Z,4.10
2022-08-26T15:14:37.821Z,3.60
2022-08-26T15:17:06.549Z,3.40
2022-08-26T15:19:34.806Z,4.20
2022-08-26T15:22:03.262Z,4.20
2022-08-26T15:24:31.763Z,3.80
2022-08-26T15:27:00.131Z,3.60
2022-08-26T15:29:28.454Z,3.90
2022-08-26T15:31:57.384Z,4.80
2022-08-26T15:34:27.175Z,4.00
2022-08-26T15:36:55.449Z,4.50
2022-08-26T15:39:23.824Z,4.30
2022-08-26T15:41:52.022Z,4.90
2022-08-26T15:44:20.757Z,4.70
2022-08-26T15:46:50.220Z,4.40
2022-08-26T15:49:18.830Z,4.50
2022-08-26T15:51:50.518Z,4.20
2022-08-26T15:54:22.308Z,5.30
2022-08-26T15:56:52.375Z,5.10
2022-08-26T15:59:21.897Z,4.30
2022-08-26T16:01:52.223Z,5.90
2022-08-26T16:04:21.095Z,4.60
2022-08-26T16:06:51.725Z,5.50
2022-08-26T16:09:24.260Z,5.40
2022-08-26T16:11:57.249Z,5.80
2022-08-26T16:14:30.393Z,5.70
2022-08-26T16:16:58.724Z,5.30
2022-08-26T16:19:27.128Z,6.30
2022-08-26T16:21:57.338Z,6.30
2022-08-26T16:24:30.387Z,6.30
2022-08-26T16:26:59.256Z,6.20
2022-08-26T16:29:27.928Z,5.60
2022-08-26T16:31:56.622Z,5.70
2022-08-26T16:34:25.015Z,5.80
2022-08-26T16:36:53.350Z,5.50
2022-08-26T16:39:21.669Z,6.60
2022-08-26T16:41:50.571Z,7.20
2022-08-26T16:44:19.236Z,8.10
2022-08-26T16:46:48.148Z,7.70
2022-08-26T16:49:16.637Z,8.70
2022-08-26T16:51:45.076Z,9.20
2022-08-26T16:54:13.336Z,8.20
2022-08-26T16:56:41.770Z,6.60
2022-08-26T16:59:11.758Z,7.60
2022-08-26T17:01:40.354Z,7.70
2022-08-26T17:04:08.906Z,6.70
2022-08-26T17:06:37.370Z,8.60
2022-08-26T17:09:05.977Z,9.50
2022-08-26T17:11:35.521Z,7.50
2022-08-26T17:14:05.247Z,6.60
2022-08-26T17:16:33.779Z,6.00
2022-08-26T17:19:03.015Z,6.10
2022-08-26T17:21:33.688Z,6.20
2022-08-26T17:24:04.552Z,6.10
2022-08-26T17:26:33.254Z,6.50
2022-08-26T17:29:01.655Z,9.20
2022-08-26T17:31:30.074Z,10.40
2022-08-26T17:33:58.434Z,9.70
2022-08-26T17:36:27.939Z,10.20
2022-08-26T17:38:58.714Z,9.10
2022-08-26T17:43:56.161Z,9.60
2022-08-26T17:46:24.761Z,9.60
2022-08-26T17:48:53.335Z,10.00
2022-08-26T17:51:23.005Z,9.70
2022-08-26T17:53:52.131Z,10.70
2022-08-26T17:56:25.034Z,9.50
2022-08-26T17:59:02.391Z,9.50
2022-08-26T18:01:32.581Z,8.90
2022-08-26T18:04:01.774Z,8.60
2022-08-26T18:06:30.747Z,7.90
2022-08-26T18:09:00.667Z,7.90
2022-08-26T18:11:29.734Z,8.30
2022-08-26T18:13:58.772Z,8.10
2022-08-26T18:16:27.651Z,8.10
2022-08-26T18:18:56.034Z,8.10
2022-08-26T18:21:27.823Z,7.40
2022-08-26T18:23:56.547Z,8.50
2022-08-26T18:26:31.286Z,8.20
2022-08-26T18:28:59.813Z,7.90
2022-08-26T18:31:28.365Z,8.10
2022-08-26T18:33:59.684Z,8.10
2022-08-26T18:36:35.041Z,7.10
2022-08-26T18:39:05.510Z,7.10
2022-08-26T18:41:40.867Z,7.00
2022-08-26T18:44:13.473Z,7.00
2022-08-26T18:46:43.694Z,10.10
2022-08-26T18:49:13.791Z,9.70
2022-08-26T18:51:42.735Z,8.80
2022-08-26T18:54:11.809Z,9.40
2022-08-26T18:56:40.725Z,9.20
2022-08-26T18:59:09.785Z,8.50
2022-08-26T19:01:40.523Z,8.70
2022-08-26T19:04:14.049Z,8.30
2022-08-26T19:06:50.747Z,7.40
2022-08-26T19:09:20.321Z,8.40
2022-08-26T19:11:50.066Z,8.30
2022-08-26T19:14:19.062Z,8.30
2022-08-26T19:16:49.666Z,8.30
2022-08-26T19:19:19.408Z,8.30
2022-08-26T19:21:47.776Z,8.00
2022-08-26T19:24:17.728Z,8.10
2022-08-26T19:26:49.171Z,8.70
2022-08-26T19:29:22.158Z,7.80
2022-08-26T19:31:50.627Z,8.40
2022-08-26T19:34:20.759Z,8.50
2022-08-26T19:39:17.791Z,8.60
2022-08-26T19:41:46.070Z,9.30
2022-08-26T19:44:38.113Z,8.80
2022-08-26T19:47:08.159Z,8.50
2022-08-26T19:49:37.063Z,9.20
2022-08-26T19:52:08.029Z,9.00
2022-08-26T19:54:36.355Z,9.00
2022-08-26T19:57:06.269Z,8.30
2022-08-26T19:59:36.281Z,9.90
2022-08-26T20:02:10.051Z,10.10
2022-08-26T20:04:39.811Z,10.90
2022-08-26T20:07:09.193Z,11.10
2022-08-26T20:09:38.452Z,11.60
2022-08-26T20:12:07.916Z,11.30
2022-08-26T20:14:38.793Z,14.10
2022-08-26T20:17:07.111Z,13.30
2022-08-26T20:19:54.106Z,11.70
2022-08-26T20:22:22.927Z,12.80
2022-08-26T20:24:52.259Z,12.10
2022-08-26T20:27:34.360Z,14.40
2022-08-26T20:30:08.728Z,13.30
2022-08-26T20:32:38.604Z,14.20
2022-08-26T20:35:09.669Z,13.60
2022-08-26T20:37:39.604Z,12.70
2022-08-26T20:40:10.767Z,10.70
2022-08-26T20:42:39.261Z,10.10
2022-08-26T20:45:08.729Z,11.00
2022-08-26T20:47:37.224Z,9.70
2022-08-26T20:50:06.605Z,10.90
2022-08-26T20:52:35.033Z,15.30
2022-08-26T20:55:03.840Z,16.70
2022-08-26T20:57:33.040Z,19.50
2022-08-26T21:00:01.361Z,17.90
2022-08-26T21:02:29.827Z,19.00
2022-08-26T21:04:58.253Z,18.50
2022-08-26T21:07:29.855Z,17.70
2022-08-26T21:09:58.222Z,18.70
2022-08-26T21:12:27.789Z,17.70
2022-08-26T21:14:56.034Z,16.30
2022-08-26T21:17:24.356Z,16.10
2022-08-26T21:19:53.254Z,14.20
2022-08-26T21:22:22.308Z,15.30
2022-08-26T21:24:50.710Z,15.40
2022-08-26T21:27:26.177Z,13.80
2022-08-26T21:29:56.247Z,13.00
2022-08-26T21:32:24.577Z,12.10
2022-08-26T21:34:57.349Z,11.80
2022-08-26T21:37:27.312Z,11.60
2022-08-26T21:39:57.598Z,11.90
2022-08-26T21:42:27.014Z,12.10
2022-08-26T21:44:55.416Z,15.30
2022-08-26T21:47:24.571Z,15.10
2022-08-26T21:49:53.696Z,12.80
2022-08-26T21:52:22.762Z,12.30
2022-08-26T21:54:51.029Z,10.90
2022-08-26T21:57:19.537Z,10.80
2022-08-26T21:59:48.022Z,10.30
2022-08-26T22:02:16.724Z,10.30
2022-08-26T22:04:48.814Z,11.50
2022-08-26T22:07:19.261Z,11.20
2022-08-26T22:09:47.897Z,11.60
2022-08-26T22:12:18.446Z,11.10
2022-08-26T22:14:47.177Z,11.70
2022-08-26T22:17:16.114Z,11.90
2022-08-26T22:19:46.488Z,11.40
2022-08-26T22:24:43.964Z,10.30
2022-08-26T22:27:12.837Z,10.40
2022-08-26T22:29:41.400Z,10.20
2022-08-26T22:32:09.879Z,10.10
2022-08-26T22:34:38.126Z,10.50
2022-08-26T22:37:06.654Z,11.20
2022-08-26T22:39:35.055Z,10.40
2022-08-26T22:42:04.745Z,9.40
2022-08-26T22:44:33.349Z,11.00
2022-08-26T22:47:01.874Z,10.60
2022-08-26T22:49:30.084Z,10.20
2022-08-26T22:51:58.484Z,9.80
2022-08-26T22:54:27.662Z,9.60
2022-08-26T22:56:56.107Z,9.50
2022-08-26T22:59:25.104Z,10.10
2022-08-26T23:01:57.068Z,10.20
2022-08-26T23:04:27.979Z,9.80
2022-08-26T23:09:24.547Z,10.80
2022-08-26T23:11:56.053Z,10.30
2022-08-26T23:14:25.978Z,12.00
2022-08-26T23:16:54.406Z,11.90
2022-08-26T23:19:23.084Z,11.00
2022-08-26T23:21:52.004Z,10.70
2022-08-26T23:24:21.225Z,11.10
2022-08-26T23:26:49.466Z,9.80
2022-08-26T23:29:18.087Z,10.00
2022-08-26T23:31:46.750Z,10.30
2022-08-26T23:34:33.808Z,9.30
2022-08-26T23:37:03.254Z,10.20
2022-08-26T23:39:36.793Z,9.60
2022-08-26T23:44:35.120Z,9.70
2022-08-26T23:47:05.209Z,8.80
2022-08-26T23:49:34.718Z,9.70
2022-08-26T23:52:23.467Z,8.80
2022-08-26T23:54:53.005Z,8.20
2022-08-26T23:57:23.798Z,9.60
2022-08-26T23:59:53.391Z,8.90
